Time;durP1;ratioP1;P1;durP2;ratioP2;P2;SDS_P1;SDS_P2;PMS_P1;PMS_P2;Temp;Humidity;BMP_temperature;BMP_pressure;BME280_temperature;BME280_humidity;BME280_pressure;Samples;Min_cycle;Max_cycle;Signal;HPM_P1;HPM_P2
2022/06/07 00:00:11;;;;;;;4.82;4.13;;;16.10;99.90;;;-141.84;90.39;17977.03;5071139;28;20197;-56
2022/06/07 00:02:39;;;;;;;4.35;3.95;;;16.20;99.90;;;-141.84;90.28;17968.91;5070497;28;20304;-59
2022/06/07 00:05:08;;;;;;;5.80;3.97;;;16.20;99.90;;;-141.84;89.40;17989.22;5070466;28;20731;-57
2022/06/07 00:07:36;;;;;;;4.25;3.90;;;16.20;99.90;;;-141.84;88.75;17997.34;5070123;28;20598;-53
2022/06/07 00:10:06;;;;;;;4.13;3.83;;;16.30;99.90;;;-141.84;88.20;18015.63;5070493;28;20422;-56
2022/06/07 00:12:35;;;;;;;3.85;3.55;;;16.30;99.90;;;-141.84;87.14;18072.50;5070146;28;20201;-53
2022/06/07 00:15:05;;;;;;;4.28;3.70;;;16.40;99.90;;;-141.84;86.97;18107.03;5070849;28;20335;-55
2022/06/07 00:17:33;;;;;;;3.88;3.58;;;16.40;99.90;;;-141.84;87.03;18062.34;5070111;28;20307;-58
2022/06/07 00:20:02;;;;;;;4.82;3.88;;;16.40;99.90;;;-141.84;86.43;18119.22;5069972;28;20228;-54
2022/06/07 00:22:30;;;;;;;4.75;3.72;;;16.50;99.90;;;-141.84;86.41;18098.91;5070036;28;20220;-55
2022/06/07 00:24:58;;;;;;;4.78;3.38;;;16.40;99.90;;;-141.84;86.87;18100.94;5070135;28;20224;-54
2022/06/07 00:27:27;;;;;;;3.90;3.58;;;16.50;99.90;;;-141.84;87.49;18115.16;5070088;28;20682;-56
2022/06/07 00:29:55;;;;;;;4.05;3.65;;;16.40;99.90;;;-141.84;86.96;18086.72;5069974;28;20252;-55
2022/06/07 00:32:25;;;;;;;3.70;3.40;;;16.40;99.90;;;-141.84;86.95;18109.06;5069726;28;20315;-55
2022/06/07 00:34:54;;;;;;;4.00;3.70;;;16.40;99.90;;;-141.84;86.83;18090.78;5070285;28;20239;-57
2022/06/07 00:37:22;;;;;;;4.10;3.70;;;16.40;99.90;;;-141.84;87.60;18084.69;5070229;28;20228;-55
2022/06/07 00:39:50;;;;;;;4.10;3.45;;;16.40;99.90;;;-141.84;87.13;18066.41;5069971;28;20304;-53
2022/06/07 00:42:18;;;;;;;3.90;3.60;;;16.40;99.90;;;-141.84;86.74;18080.63;5070563;28;20181;-55
2022/06/07 00:44:47;;;;;;;3.60;3.30;;;16.30;99.90;;;-141.84;86.63;18119.22;5069835;28;20235;-54
2022/06/07 00:47:19;;;;;;;3.50;3.20;;;16.30;99.90;;;-141.84;86.98;18070.47;5069685;28;20307;-56
2022/06/07 00:49:53;;;;;;;3.55;3.25;;;16.30;99.90;;;-141.84;86.64;18070.47;5068946;28;20263;-60
2022/06/07 00:52:25;;;;;;;3.58;3.30;;;16.20;99.90;;;-141.84;87.23;18062.34;5069903;28;20251;-56
2022/06/07 00:54:54;;;;;;;3.85;3.45;;;16.20;99.90;;;-141.84;87.10;18056.25;5069917;28;20235;-54
2022/06/07 00:57:22;;;;;;;3.53;3.22;;;16.20;99.90;;;-141.84;86.60;18064.38;5070065;28;20215;-55
2022/06/07 00:59:51;;;;;;;3.70;3.40;;;16.20;99.90;;;-141.84;86.13;18111.09;5069604;28;20221;-54
2022/06/07 01:02:21;;;;;;;3.60;3.30;;;16.20;99.90;;;-141.84;86.47;18090.78;5069200;28;20778;-56
2022/06/07 01:04:50;;;;;;;3.85;3.55;;;16.20;99.90;;;-141.84;87.24;18054.22;5069379;28;20327;-56
2022/06/07 01:12:52;;;;;;;3.60;3.30;;;16.20;99.90;;;-141.84;88.81;18003.44;5069175;28;20216;-57
2022/06/07 01:15:20;;;;;;;3.97;3.67;;;16.20;99.90;;;-141.84;88.69;18009.53;5070069;28;20564;-56
2022/06/07 01:17:48;;;;;;;4.10;3.50;;;16.20;99.90;;;-141.84;88.63;18009.53;5069319;28;20308;-56
2022/06/07 01:20:18;;;;;;;3.70;3.35;;;16.20;99.90;;;-141.84;88.86;17968.91;5049187;28;20239;-55
2022/06/07 01:22:47;;;;;;;3.72;3.42;;;16.20;99.90;;;-141.84;88.98;17983.13;5049281;28;20283;-59
2022/06/07 01:25:22;;;;;;;3.80;3.50;;;16.10;99.90;;;-141.84;88.56;17995.31;5067265;28;20330;-56
2022/06/07 01:27:50;;;;;;;4.75;3.72;;;16.10;99.90;;;-141.84;88.56;17983.13;5068683;28;20270;-58
2022/06/07 01:30:18;;;;;;;3.55;3.25;;;16.10;99.90;;;-141.84;89.07;17968.91;5069727;28;20299;-55
2022/06/07 01:32:47;;;;;;;4.05;3.60;;;16.00;99.90;;;-141.84;88.98;17966.88;5069200;28;20225;-56
2022/06/07 01:35:15;;;;;;;4.20;3.53;;;16.00;99.90;;;-141.84;89.26;17938.44;5069244;28;20246;-57
2022/06/07 01:37:43;;;;;;;4.43;3.58;;;16.00;99.90;;;-141.84;89.82;17895.75;5063748;28;20796;-57
2022/06/07 01:42:59;;;;;;;3.90;3.60;;;15.90;99.90;;;-141.84;90.88;17836.84;5065388;28;20271;-56
2022/06/07 01:45:28;;;;;;;4.15;3.83;;;15.90;99.90;;;-141.84;90.82;17838.88;5067392;28;20251;-59
2022/06/07 01:47:56;;;;;;;4.53;3.80;;;15.80;99.90;;;-141.84;91.45;17800.28;5069591;28;20231;-57
2022/06/07 01:50:24;;;;;;;3.83;3.47;;;15.90;99.90;;;-141.84;91.13;17802.31;5069445;28;20236;-56
2022/06/07 01:52:52;;;;;;;3.70;3.40;;;15.90;99.90;;;-141.84;90.78;17802.31;5069430;28;20228;-56
2022/06/07 01:55:22;;;;;;;4.00;3.60;;;15.90;99.90;;;-141.84;90.00;17861.22;5069757;28;20664;-58
2022/06/07 01:57:50;;;;;;;3.97;3.67;;;15.90;99.90;;;-141.84;89.97;17857.16;5069819;28;20283;-57
2022/06/07 02:00:19;;;;;;;4.15;3.85;;;15.90;99.90;;;-141.84;90.15;17851.06;5070456;28;20254;-55
2022/06/07 02:02:47;;;;;;;3.78;3.40;;;15.90;99.90;;;-141.84;90.41;17869.34;5073222;28;20231;-56
2022/06/07 02:05:17;;;;;;;4.18;3.78;;;16.00;99.90;;;-141.84;90.84;17794.19;5073626;28;20651;-54
2022/06/07 02:07:45;;;;;;;3.75;3.45;;;16.00;99.90;;;-141.84;91.10;17800.28;5073348;28;20311;-53
2022/06/07 02:10:13;;;;;;;4.00;3.70;;;15.90;99.90;;;-141.84;90.51;17806.38;5073565;28;20228;-55
2022/06/07 02:12:42;;;;;;;4.03;3.72;;;16.00;99.90;;;-141.84;91.19;17784.03;5073362;28;20288;-57
2022/06/07 02:15:11;;;;;;;3.67;3.45;;;16.00;99.90;;;-141.84;91.08;17771.84;5074148;28;20201;-55
2022/06/07 02:17:39;;;;;;;4.03;3.70;;;15.90;99.90;;;-141.84;90.94;17810.44;5073268;28;20401;-55
2022/06/07 02:20:09;;;;;;;4.30;3.90;;;15.90;99.90;;;-141.84;90.94;17796.22;5073350;28;20600;-57
2022/06/07 02:22:37;;;;;;;3.83;3.53;;;15.90;99.90;;;-141.84;90.94;17775.91;5073154;28;20607;-59
2022/06/07 02:25:07;;;;;;;4.35;3.95;;;15.90;99.90;;;-141.84;90.63;17830.75;5073271;28;20228;-57
2022/06/07 02:27:35;;;;;;;5.47;4.10;;;16.00;99.90;;;-141.84;91.05;17771.84;5072804;28;20193;-58
2022/06/07 02:30:09;;;;;;;4.32;3.80;;;16.00;99.90;;;-141.84;90.69;17802.31;5073504;28;20730;-55
2022/06/07 02:32:37;;;;;;;4.20;3.85;;;16.00;99.90;;;-141.84;91.37;17735.28;5072778;28;20225;-57
2022/06/07 02:35:07;;;;;;;4.10;3.80;;;16.10;99.90;;;-141.84;91.14;17743.41;5073308;28;20228;-57
2022/06/07 02:37:38;;;;;;;3.95;3.65;;;16.00;99.90;;;-141.84;91.02;17749.50;5073033;28;20351;-56
2022/06/07 02:40:08;;;;;;;6.00;4.47;;;16.10;99.90;;;-141.84;90.67;17786.06;5072898;28;20225;-55
2022/06/07 02:42:37;;;;;;;5.00;4.50;;;16.00;99.90;;;-141.84;90.88;17765.75;5072780;28;20196;-54
2022/06/07 02:45:08;;;;;;;4.85;4.18;;;16.00;99.90;;;-141.84;91.04;17749.50;5073551;28;20274;-55
2022/06/07 02:47:36;;;;;;;4.65;4.25;;;16.00;99.90;;;-141.84;91.03;17733.25;5072589;28;20270;-55
2022/06/07 02:50:06;;;;;;;6.18;4.07;;;16.00;99.90;;;-141.84;91.13;17714.97;5072848;28;20772;-52
2022/06/07 02:52:34;;;;;;;5.03;4.50;;;16.00;99.90;;;-141.84;91.22;17767.78;5072676;28;20359;-53
2022/06/07 02:55:03;;;;;;;6.00;4.70;;;16.00;99.90;;;-141.84;90.07;17737.31;5072785;28;20329;-56
2022/06/07 02:57:31;;;;;;;4.95;4.45;;;16.10;99.90;;;-141.84;90.18;17765.75;5072949;28;20201;-54
2022/06/07 03:00:13;;;;;;;4.80;4.40;;;16.10;99.90;;;-141.84;89.83;17802.31;5073060;28;20236;-55
2022/06/07 03:02:42;;;;;;;5.25;4.75;;;16.10;99.90;;;-141.84;88.35;17859.19;5072352;28;20263;-56
2022/06/07 03:05:11;;;;;;;5.70;5.20;;;16.10;99.90;;;-141.84;88.26;17855.13;5072387;28;20220;-54
2022/06/07 03:07:41;;;;;;;6.20;5.60;;;16.20;99.90;;;-141.84;86.89;17889.66;5072263;28;20217;-52
2022/06/07 03:10:11;;;;;;;5.88;5.28;;;16.20;99.90;;;-141.84;87.36;17930.31;5072598;28;20281;-55
2022/06/07 03:12:40;;;;;;;5.38;4.88;;;16.20;99.90;;;-141.84;88.26;17926.25;5071696;28;20189;-54
2022/06/07 03:15:11;;;;;;;5.10;4.60;;;16.10;99.90;;;-141.84;88.71;17905.91;5073105;28;20283;-56
2022/06/07 03:17:40;;;;;;;5.63;5.07;;;16.20;99.90;;;-141.84;88.52;17887.63;5072235;28;20303;-57
2022/06/07 03:20:11;;;;;;;6.47;5.20;;;16.20;99.90;;;-141.84;87.69;17903.88;5072010;28;20704;-57
2022/06/07 03:22:40;;;;;;;6.30;4.97;;;16.20;99.90;;;-141.84;87.14;17912.00;5072062;28;20306;-58
2022/06/07 03:25:11;;;;;;;4.43;4.03;;;16.20;99.90;;;-141.84;87.35;17924.22;5072020;28;20234;-55
2022/06/07 03:27:40;;;;;;;5.03;4.60;;;16.20;99.90;;;-141.84;87.29;17932.34;5071766;28;20304;-56
2022/06/07 03:30:12;;;;;;;5.72;4.10;;;16.20;99.90;;;-141.84;87.85;17920.13;5072330;28;20207;-56
2022/06/07 03:32:40;;;;;;;4.50;4.13;;;16.20;99.90;;;-141.84;88.29;17895.75;5071936;28;20344;-56
2022/06/07 03:35:09;;;;;;;5.13;4.63;;;16.20;99.90;;;-141.84;88.40;17899.81;5071736;28;20220;-54
2022/06/07 03:37:37;;;;;;;5.03;4.60;;;16.20;99.90;;;-141.84;87.99;17901.84;5071752;28;20234;-56
2022/06/07 03:40:09;;;;;;;4.68;4.25;;;16.20;99.90;;;-141.84;87.67;17916.06;5071329;28;20228;-56
2022/06/07 03:42:37;;;;;;;4.57;4.18;;;16.20;99.90;;;-141.84;87.94;17905.91;5071813;28;20303;-56
2022/06/07 03:45:07;;;;;;;5.25;4.10;;;16.20;99.90;;;-141.84;86.80;17926.25;5072283;28;20228;-55
2022/06/07 03:47:37;;;;;;;4.97;4.43;;;16.30;99.90;;;-141.84;87.14;17958.75;5071508;28;20277;-56
2022/06/07 03:50:07;;;;;;;4.97;4.47;;;16.30;99.90;;;-141.84;86.11;18023.75;5071552;28;20327;-56
2022/06/07 03:52:35;;;;;;;4.72;4.30;;;16.30;99.90;;;-141.84;85.21;18013.59;5071759;28;20232;-56
2022/06/07 03:55:06;;;;;;;4.78;4.22;;;16.40;99.90;;;-141.84;85.90;18021.72;5071036;28;20244;-54
2022/06/07 03:57:34;;;;;;;4.70;4.22;;;16.40;99.90;;;-141.84;86.45;18009.53;5071854;28;20729;-55
2022/06/07 04:00:06;;;;;;;6.90;4.45;;;16.50;99.90;;;-141.84;86.79;18003.44;5072172;28;20211;-57
2022/06/07 04:02:36;;;;;;;4.80;4.30;;;16.40;99.90;;;-141.84;86.58;17993.28;5071235;28;20251;-58
2022/06/07 04:05:05;;;;;;;5.60;4.65;;;16.50;99.90;;;-141.84;86.29;18025.78;5071106;28;20227;-56
2022/06/07 04:10:19;;;;;;;4.75;3.92;;;16.60;99.90;;;-141.84;85.06;18042.03;5071149;28;20251;-54
2022/06/07 04:12:48;;;;;;;4.47;4.05;;;16.60;99.90;;;-141.84;84.35;18078.59;5071071;28;20208;-56
2022/06/07 04:15:16;;;;;;;6.22;4.53;;;16.70;99.90;;;-141.84;83.78;18082.66;5071209;28;20571;-56
2022/06/07 04:17:45;;;;;;;4.53;4.13;;;16.70;99.90;;;-141.84;83.94;18117.19;5070895;28;20225;-55
2022/06/07 04:20:13;;;;;;;5.50;4.32;;;16.70;99.90;;;-141.84;84.37;18068.44;5070710;28;20235;-57
2022/06/07 04:22:41;;;;;;;4.75;4.35;;;16.70;99.90;;;-141.84;84.01;18107.03;5070814;28;20225;-56
2022/06/07 04:25:10;;;;;;;5.13;4.72;;;16.70;99.90;;;-141.84;83.36;18117.19;5069465;28;20220;-54
2022/06/07 04:27:39;;;;;;;5.38;4.88;;;16.70;99.90;;;-141.84;82.74;18100.94;5064619;28;20221;-56
2022/06/07 04:30:09;;;;;;;5.70;5.10;;;16.70;99.90;;;-141.84;81.86;18163.91;5050874;28;20757;-55
2022/06/07 04:32:39;;;;;;;4.70;4.13;;;16.80;99.90;;;-141.84;82.15;18163.91;5056817;28;20234;-55
2022/06/07 04:35:09;;;;;;;4.60;4.20;;;16.80;99.90;;;-141.84;82.84;18143.59;5070338;28;20285;-55
2022/06/07 04:37:38;;;;;;;5.03;4.32;;;16.80;99.90;;;-141.84;82.50;18200.47;5066171;28;20688;-55
2022/06/07 04:40:08;;;;;;;5.13;4.63;;;16.90;99.90;;;-141.84;82.60;18143.59;5050385;28;20236;-50
2022/06/07 04:42:36;;;;;;;4.88;4.25;;;16.90;99.90;;;-141.84;81.44;18188.28;5050538;28;20231;-55
2022/06/07 04:45:06;;;;;;;5.90;4.95;;;16.90;99.90;;;-141.84;80.09;18198.44;5051139;28;20219;-56
2022/06/07 04:47:34;;;;;;;5.20;4.70;;;17.00;99.90;;;-141.84;79.36;18265.50;5050445;28;20253;-57
2022/06/07 04:50:03;;;;;;;4.50;4.10;;;17.20;99.90;;;-141.84;76.36;18438.19;5050399;28;20274;-57
2022/06/07 04:52:33;;;;;;;4.10;3.80;;;17.70;99.90;;;-141.84;66.62;18787.63;5050490;28;20605;-58
2022/06/07 04:55:01;;;;;;;4.55;4.15;;;19.00;99.90;;;-141.84;56.98;19224.50;5049920;28;20740;-57
2022/06/07 04:57:30;;;;;;;4.45;3.28;;;20.20;99.90;;;-141.84;60.25;19080.22;5050947;28;20663;-56
2022/06/07 04:59:58;;;;;;;5.40;4.05;;;20.30;99.90;;;-141.84;62.90;18954.25;5050693;28;20227;-56
2022/06/07 05:02:26;;;;;;;3.55;3.25;;;20.00;99.90;;;-141.84;65.77;18852.66;5055142;28;20311;-55
2022/06/07 05:04:55;;;;;;;3.70;3.40;;;19.70;99.90;;;-141.84;66.46;18818.09;5070196;28;20620;-54
2022/06/07 05:07:23;;;;;;;3.35;3.05;;;19.70;99.90;;;-141.84;68.06;18791.69;5070421;28;20243;-57
2022/06/07 05:09:52;;;;;;;3.85;3.45;;;19.50;99.90;;;-141.84;69.19;18722.63;5069928;28;20613;-57
2022/06/07 05:12:20;;;;;;;3.85;3.30;;;19.30;99.90;;;-141.84;68.23;18797.78;5070827;28;20235;-56
2022/06/07 05:14:49;;;;;;;5.38;3.83;;;19.30;99.90;;;-141.84;61.75;19059.91;5070243;28;20232;-55
2022/06/07 05:17:18;;;;;;;5.55;3.65;;;20.00;99.90;;;-141.84;55.23;19358.63;5070273;28;20221;-58
2022/06/07 05:19:46;;;;;;;5.25;3.53;;;20.90;99.90;;;-141.84;50.57;19380.97;5069956;28;20228;-57
2022/06/07 05:22:14;;;;;;;3.85;3.30;;;21.20;99.90;;;-141.84;51.03;19334.22;5070647;28;20228;-57
2022/06/07 05:24:42;;;;;;;4.63;3.78;;;21.20;99.90;;;-141.84;51.98;19244.81;5070023;28;20573;-58
2022/06/07 05:27:17;;;;;;;3.45;3.10;;;21.00;99.90;;;-141.84;54.88;19118.84;5070422;28;20319;-57
2022/06/07 05:29:50;;;;;;;3.63;3.33;;;20.50;99.90;;;-141.84;56.63;19070.06;5070232;28;20323;-57
2022/06/07 05:32:19;;;;;;;4.18;3.35;;;20.40;99.90;;;-141.84;57.91;18958.31;5069911;28;20242;-57
2022/06/07 05:34:48;;;;;;;3.38;3.08;;;20.00;99.90;;;-141.84;58.36;18958.31;5070064;28;20613;-57
2022/06/07 05:37:19;;;;;;;3.75;2.92;;;19.70;99.90;;;-141.84;56.77;19007.06;5072840;28;20225;-56
2022/06/07 05:39:48;;;;;;;3.30;3.00;;;19.70;99.90;;;-141.84;57.44;19005.03;5073614;28;20192;-54
2022/06/07 05:42:19;;;;;;;3.53;3.22;;;19.70;99.90;;;-141.84;57.43;18982.69;5074481;28;20276;-54
2022/06/07 05:44:47;;;;;;;3.30;3.00;;;19.60;99.90;;;-141.84;59.54;18931.91;5070215;28;20231;-55
2022/06/07 05:47:15;;;;;;;5.32;3.15;;;19.60;99.90;;;-141.84;59.01;18948.16;5070857;28;20244;-57
2022/06/07 05:49:43;;;;;;;7.22;3.10;;;19.60;99.90;;;-141.84;58.41;18911.56;5072936;28;20308;-55
2022/06/07 05:52:12;;;;;;;3.30;2.90;;;19.30;99.90;;;-141.84;58.94;18887.19;5073140;28;20220;-56
2022/06/07 05:54:40;;;;;;;3.50;2.70;;;19.10;99.90;;;-141.84;59.06;18919.69;5073535;28;20280;-55
2022/06/07 05:57:10;;;;;;;3.88;2.90;;;19.10;99.90;;;-141.84;57.58;18944.09;5073920;28;20192;-57
2022/06/07 05:59:39;;;;;;;3.78;3.00;;;19.20;99.90;;;-141.84;58.15;18948.16;5073365;28;20248;-59
2022/06/07 06:02:08;;;;;;;4.85;3.30;;;19.20;99.90;;;-141.84;58.01;18913.59;5073078;28;20308;-55
2022/06/07 06:04:36;;;;;;;4.25;2.80;;;19.10;99.90;;;-141.84;59.43;18901.41;5070107;28;20353;-56
2022/06/07 06:07:04;;;;;;;3.80;2.70;;;19.10;99.90;;;-141.84;60.62;18838.44;5070525;28;20229;-56
2022/06/07 06:12:23;;;;;;;3.50;3.20;;;19.00;99.90;;;-141.84;61.81;18832.34;5073160;28;20641;-55
2022/06/07 06:14:53;;;;;;;3.20;2.90;;;18.90;99.90;;;-141.84;61.27;18840.47;5073094;28;20586;-56
2022/06/07 06:17:21;;;;;;;2.75;2.55;;;19.00;99.90;;;-141.84;60.28;18868.91;5072967;28;20310;-58
2022/06/07 06:19:49;;;;;;;3.47;3.08;;;19.10;99.90;;;-141.84;55.97;19021.31;5073057;28;20232;-55
2022/06/07 06:22:17;;;;;;;3.92;2.80;;;19.30;99.90;;;-141.84;54.29;19078.19;5073078;28;20217;-55
2022/06/07 06:24:46;;;;;;;2.70;2.50;;;19.80;99.90;;;-141.84;55.03;19074.13;5072911;28;20288;-55
2022/06/07 06:27:14;;;;;;;3.95;2.80;;;20.00;99.90;;;-141.84;54.97;19068.03;5070458;28;20300;-54
2022/06/07 06:29:43;;;;;;;5.03;3.25;;;20.00;99.90;;;-141.84;55.59;19013.16;5068267;28;20239;-59
2022/06/07 06:32:12;;;;;;;2.55;2.35;;;19.80;99.90;;;-141.84;57.29;18976.59;5069563;28;20224;-55
2022/06/07 06:34:40;;;;;;;3.80;3.50;;;19.90;99.90;;;-141.84;58.23;18956.28;5060406;28;20227;-56
2022/06/07 06:37:08;;;;;;;3.80;3.00;;;20.00;99.90;;;-141.84;57.51;19017.25;5072368;28;20220;-55
2022/06/07 06:39:36;;;;;;;3.28;2.97;;;20.20;99.90;;;-141.84;55.12;19047.72;5072254;28;20609;-56
2022/06/07 06:42:05;;;;;;;3.67;2.90;;;20.40;99.90;;;-141.84;54.60;19114.78;5071032;28;20577;-58
2022/06/07 06:44:42;;;;;;;5.30;3.00;;;20.70;99.90;;;-141.84;53.49;19135.09;5068611;28;20246;-56
2022/06/07 06:47:12;;;;;;;4.78;3.40;;;20.80;99.90;;;-141.84;53.71;19126.97;5072036;28;20303;-54
2022/06/07 06:49:42;;;;;;;3.30;3.00;;;20.90;99.90;;;-141.84;52.06;19161.50;5071975;28;20248;-56
2022/06/07 06:52:10;;;;;;;6.60;3.17;;;20.90;99.90;;;-141.84;52.93;19139.16;5072690;28;20230;-54
2022/06/07 06:54:39;;;;;;;5.88;3.17;;;20.70;99.90;;;-141.84;53.52;19143.22;5072361;28;20301;-56
2022/06/07 06:57:07;;;;;;;4.97;2.65;;;20.60;99.90;;;-141.84;53.62;19135.09;5072634;28;20295;-53
2022/06/07 06:59:36;;;;;;;6.57;3.05;;;20.60;99.90;;;-141.84;51.83;19210.28;5072426;28;20274;-56
2022/06/07 07:02:05;;;;;;;5.13;2.58;;;21.00;99.90;;;-141.84;48.93;19328.13;5068403;28;20224;-55
2022/06/07 07:04:34;;;;;;;4.82;3.00;;;21.10;99.90;;;-141.84;49.02;19378.94;5066072;28;20560;-55
2022/06/07 07:07:03;;;;;;;5.75;2.58;;;21.40;99.90;;;-141.84;49.72;19362.69;5065302;28;20254;-56
2022/06/07 07:09:31;;;;;;;4.50;2.95;;;21.80;99.90;;;-141.84;46.98;19513.06;5066811;28;20217;-56
2022/06/07 07:12:00;;;;;;;3.70;2.25;;;22.20;99.90;;;-141.84;45.08;19549.63;5070906;28;20318;-55
2022/06/07 07:14:29;;;;;;;3.75;2.25;;;22.20;99.90;;;-141.84;45.52;19525.25;5071731;28;20319;-57
2022/06/07 07:16:57;;;;;;;4.63;2.65;;;22.20;99.90;;;-141.84;47.38;19462.25;5072045;28;20580;-56
2022/06/07 07:19:25;;;;;;;3.22;2.65;;;22.10;99.90;;;-141.84;47.83;19419.59;5072185;28;20312;-56
2022/06/07 07:21:55;;;;;;;4.07;2.10;;;22.00;99.90;;;-141.84;47.62;19421.63;5072113;28;20316;-57
2022/06/07 07:24:25;;;;;;;2.42;2.20;;;22.00;99.90;;;-141.84;46.08;19509.00;5072192;28;20295;-57
2022/06/07 07:26:54;;;;;;;4.22;2.30;;;22.10;99.90;;;-141.84;45.32;19553.72;5071926;28;20320;-56
2022/06/07 07:29:24;;;;;;;4.25;2.17;;;22.20;99.90;;;-141.84;44.49;19594.34;5051734;28;20796;-56
2022/06/07 07:31:52;;;;;;;3.33;1.80;;;22.30;99.90;;;-141.84;44.77;19590.28;5051857;28;20735;-56
2022/06/07 07:34:21;;;;;;;2.17;1.90;;;22.20;99.90;;;-141.84;45.04;19594.34;5071911;28;20755;-56
2022/06/07 07:36:54;;;;;;;3.10;2.20;;;22.30;99.90;;;-141.84;43.24;19663.44;5072198;28;20201;-57
2022/06/07 07:39:23;;;;;;;2.72;1.75;;;22.40;99.90;;;-141.84;43.90;19661.41;5071935;28;20706;-57
2022/06/07 07:41:53;;;;;;;4.43;2.22;;;22.50;99.90;;;-141.84;43.76;19659.38;5071360;28;20265;-55
2022/06/07 07:44:24;;;;;;;1.63;1.40;;;22.40;99.90;;;-141.84;43.71;19675.63;5071632;28;20232;-56
2022/06/07 07:46:55;;;;;;;2.13;1.90;;;22.60;99.90;;;-141.84;43.49;19677.66;5071864;28;20697;-56
2022/06/07 07:49:24;;;;;;;3.05;2.00;;;22.70;99.90;;;-141.84;43.83;19659.38;5071466;28;20688;-57
2022/06/07 07:51:55;;;;;;;2.22;2.00;;;22.70;99.90;;;-141.84;43.40;19710.19;5071646;28;20316;-57
2022/06/07 07:54:25;;;;;;;4.18;2.40;;;22.80;99.90;;;-141.84;43.00;19740.69;5071620;28;20736;-57
2022/06/07 07:56:55;;;;;;;3.88;2.08;;;22.90;99.90;;;-141.84;43.16;19738.66;5070782;28;20315;-55
2022/06/07 07:59:36;;;;;;;2.78;2.00;;;22.80;99.90;;;-141.84;43.23;19769.13;5040599;28;20201;-56
2022/06/07 08:02:05;;;;;;;2.30;1.85;;;22.90;99.90;;;-141.84;43.26;19765.06;5059948;28;20194;-55
2022/06/07 08:04:33;;;;;;;3.67;2.00;;;23.00;99.90;;;-141.84;43.01;19801.66;5070708;28;20649;-56
2022/06/07 08:07:03;;;;;;;2.45;1.92;;;23.30;99.90;;;-141.84;42.33;19850.41;5071245;28;20224;-54
2022/06/07 08:09:31;;;;;;;2.30;2.10;;;23.40;99.90;;;-141.84;41.22;19907.31;5065349;28;20620;-57
2022/06/07 08:12:05;;;;;;;3.67;2.20;;;23.50;99.90;;;-141.84;41.96;19874.81;5071238;28;20224;-61
2022/06/07 08:14:35;;;;;;;2.10;1.88;;;23.50;99.90;;;-141.84;41.99;19795.53;5070769;28;20717;-60
2022/06/07 08:17:04;;;;;;;2.67;1.90;;;23.20;99.90;;;-141.84;42.08;19834.16;5064758;28;20728;-60
2022/06/07 08:19:33;;;;;;;2.55;1.80;;;23.00;99.90;;;-141.84;42.26;19777.25;5050842;28;20217;-57
2022/06/07 08:22:03;;;;;;;2.97;1.90;;;22.90;99.90;;;-141.84;42.56;19785.38;5051113;28;20229;-56
2022/06/07 08:24:32;;;;;;;2.03;1.60;;;22.80;99.90;;;-141.84;43.26;19738.66;5051079;28;20308;-55
2022/06/07 08:27:00;;;;;;;3.42;1.70;;;22.70;99.90;;;-141.84;43.47;19700.03;5050646;28;20761;-57
2022/06/07 08:29:28;;;;;;;3.17;1.80;;;22.50;99.90;;;-141.84;44.02;19693.94;5050507;28;20756;-56
2022/06/07 08:31:56;;;;;;;2.28;1.85;;;22.50;99.90;;;-141.84;42.75;19726.44;5051969;28;20657;-57
2022/06/07 08:39:57;;;;;;;3.38;1.90;;;22.40;99.90;;;-141.84;43.06;19728.47;5050703;28;20266;-56
2022/06/07 08:42:31;;;;;;;2.13;1.60;;;22.30;99.90;;;-141.84;42.94;19758.97;5050658;28;20229;-55
2022/06/07 08:45:02;;;;;;;1.80;1.70;;;22.50;99.90;;;-141.84;42.86;19746.78;5050767;28;20228;-56
2022/06/07 08:47:37;;;;;;;2.10;1.55;;;22.50;99.90;;;-141.84;43.33;19765.06;5050753;28;20213;-57
2022/06/07 08:50:18;;;;;;;2.05;1.50;;;22.60;99.90;;;-141.84;42.80;19801.66;5051584;28;20201;-55
2022/06/07 08:52:53;;;;;;;4.82;1.70;;;22.90;99.90;;;-141.84;42.55;19765.06;5050786;28;20648;-56
2022/06/07 08:55:27;;;;;;;1.98;1.85;;;22.90;99.90;;;-141.84;42.37;19813.84;5050211;28;20248;-56
2022/06/07 08:57:59;;;;;;;2.35;1.80;;;22.90;99.90;;;-141.84;42.38;19795.53;5050058;28;20598;-56
2022/06/07 09:00:31;;;;;;;2.63;1.83;;;23.00;99.90;;;-141.84;42.27;19799.63;5050604;28;20309;-55
2022/06/07 09:03:35;;;;;;;3.75;1.75;;;23.10;99.90;;;-141.84;43.60;19761.00;5059746;28;20224;-55
2022/06/07 09:06:24;;;;;;;3.80;2.33;;;22.80;99.90;;;-141.84;43.36;19726.44;5070389;28;20311;-56
2022/06/07 09:08:57;;;;;;;2.88;1.98;;;22.80;99.90;;;-141.84;42.87;19734.56;5058199;28;20304;-56
2022/06/07 09:14:30;;;;;;;3.42;1.88;;;22.50;99.90;;;-141.84;44.53;19663.44;5056886;28;20205;-56
2022/06/07 09:16:59;;;;;;;3.60;1.88;;;22.40;99.90;;;-141.84;43.17;19728.47;5057118;28;20553;-57
2022/06/07 09:19:32;;;;;;;2.08;1.70;;;22.50;99.90;;;-141.84;42.71;19799.63;5056316;28;20304;-55
2022/06/07 09:22:14;;;;;;;3.67;1.98;;;22.90;99.90;;;-141.84;40.78;19864.66;5056964;28;20316;-57
2022/06/07 09:24:56;;;;;;;1.63;1.52;;;23.00;99.90;;;-141.84;41.47;19862.63;5056358;28;20311;-55
2022/06/07 09:27:30;;;;;;;1.80;1.58;;;23.20;99.90;;;-141.84;39.90;19927.66;5056467;28;20376;-55
2022/06/07 09:30:21;;;;;;;1.73;1.52;;;23.20;99.90;;;-141.84;40.44;19899.19;5056200;28;20274;-54
2022/06/07 09:32:50;;;;;;;3.67;1.60;;;23.20;99.90;;;-141.84;40.47;19872.78;5064686;28;20232;-58
2022/06/07 09:35:23;;;;;;;1.75;1.58;;;23.00;99.90;;;-141.84;41.19;19836.19;5076707;28;20295;-55
2022/06/07 09:38:00;;;;;;;2.63;1.73;;;22.80;99.90;;;-141.84;41.14;19884.97;5077566;28;20200;-58
2022/06/07 09:40:33;;;;;;;1.83;1.42;;;22.80;99.90;;;-141.84;40.29;19826.03;5076811;28;20223;-54
2022/06/07 09:43:08;;;;;;;1.75;1.40;;;22.70;99.90;;;-141.84;41.39;19777.25;5076575;28;20224;-55
2022/06/07 09:45:40;;;;;;;2.10;1.60;;;22.60;99.90;;;-141.84;41.48;19805.72;5076738;28;20235;-54
2022/06/07 09:48:28;;;;;;;2.40;1.40;;;22.50;99.90;;;-141.84;40.55;19834.16;5076865;28;20224;-53
2022/06/07 09:51:01;;;;;;;1.60;1.50;;;22.40;99.90;;;-141.84;41.10;19819.94;5076860;28;20327;-57
2022/06/07 09:53:38;;;;;;;4.47;1.25;;;22.30;99.90;;;-141.84;42.39;19793.50;5076471;28;20180;-56
2022/06/07 09:56:34;;;;;;;3.28;1.30;;;22.30;99.90;;;-141.84;42.39;19752.88;5077300;28;20215;-56
2022/06/07 09:59:43;;;;;;;3.75;1.90;;;22.20;99.90;;;-141.84;41.05;19785.38;5065961;28;20234;-58
2022/06/07 10:02:43;;;;;;;2.33;1.50;;;22.20;99.90;;;-141.84;41.63;19763.03;5077051;28;20304;-55
2022/06/07 10:05:23;;;;;;;1.80;1.70;;;22.10;99.90;;;-141.84;42.65;19732.53;5077008;28;20204;-54
2022/06/07 10:08:03;;;;;;;3.33;1.60;;;22.20;99.90;;;-141.84;43.19;19722.38;5073594;28;20216;-56
2022/06/07 10:10:44;;;;;;;2.30;1.60;;;22.20;99.90;;;-141.84;43.07;19712.22;5076268;28;20301;-56
2022/06/07 10:13:28;;;;;;;4.88;2.05;;;22.10;99.90;;;-141.84;42.63;19756.94;5076470;28;20228;-58
2022/06/07 10:16:10;;;;;;;2.10;1.90;;;22.10;99.90;;;-141.84;43.10;19724.41;5076345;28;20237;-56
2022/06/07 10:18:55;;;;;;;1.75;1.65;;;22.10;99.90;;;-141.84;44.06;19691.91;5076444;28;20259;-56
2022/06/07 10:22:02;;;;;;;1.70;1.60;;;22.10;99.90;;;-141.84;42.32;19758.97;5076543;28;20728;-53
2022/06/07 10:24:45;;;;;;;3.60;1.50;;;22.30;99.90;;;-141.84;39.16;19937.81;5073260;28;20228;-50
2022/06/07 10:27:22;;;;;;;2.38;1.35;;;22.60;99.90;;;-141.84;38.41;19966.28;5073180;28;20229;-56
2022/06/07 10:30:19;;;;;;;2.55;1.30;;;22.80;99.90;;;-141.84;39.36;19970.34;5073091;28;20784;-54
2022/06/07 10:33:22;;;;;;;2.00;1.35;;;22.80;99.90;;;-141.84;38.70;19974.41;5073392;28;20713;-55
2022/06/07 10:35:58;;;;;;;1.40;1.30;;;22.90;99.90;;;-141.84;38.07;19988.63;5056388;28;20224;-56
2022/06/07 10:38:46;;;;;;;2.35;1.70;;;23.10;99.90;;;-141.84;39.05;19941.88;5073180;28;20204;-57
2022/06/07 10:41:27;;;;;;;1.90;1.70;;;23.00;99.90;;;-141.84;39.20;19998.78;5072937;28;20264;-58
2022/06/07 10:44:09;;;;;;;2.25;1.45;;;23.10;99.90;;;-141.84;37.76;20067.88;5073340;28;20668;-55